Central, South Carolina
Current Conditions -  °F | °C
As of 4:54 PM on Sunday 21 Dec 2014 (Local Time) from KCEU Reporting Station
Overcast Overcast  
Wind Chill: 52°   Ceiling: 3200
Heat Index: 52°   Visibility: 10mi
Dew Point: 39°   Wind: 6mph
Humidity: 61%   Direction: 70°ENE
Pressure: 30.15"   Gusts: NA
Location:  34.72°N, 82.78°W
Report Text: KCEU 212154Z AUTO 07005KT 10SM OVC032 11/04 A3015 RMK AO2 SLP208 T01110039
Loading
Personal Weather Stations






























Interactive Weather Map New forecast layout! Learn more

10-Day Weather Forecast

Advertisements
Track Severe Weather on mobile